sensor_id;sensor_type;location;lat;lon;timestamp;P1;durP1;ratioP1;P2;durP2;ratioP2
25169;SDS011;13129;48.012;10.352;2022-08-20T03:41:36;28.73;;;23.83;;
25169;SDS011;13129;48.012;10.352;2022-08-20T03:50:34;29.67;;;24.17;;
25169;SDS011;13129;48.012;10.352;2022-08-20T03:53:01;29.13;;;25.58;;
25169;SDS011;13129;48.012;10.352;2022-08-20T03:55:28;29.73;;;24.55;;
25169;SDS011;13129;48.012;10.352;2022-08-20T03:57:57;28.58;;;24.50;;
25169;SDS011;13129;48.012;10.352;2022-08-20T04:00:48;31.63;;;25.23;;
25169;SDS011;13129;48.012;10.352;2022-08-20T04:03:14;27.20;;;23.92;;
25169;SDS011;13129;48.012;10.352;2022-08-20T04:05:41;29.77;;;24.60;;
25169;SDS011;13129;48.012;10.352;2022-08-20T04:08:12;30.45;;;24.25;;
25169;SDS011;13129;48.012;10.352;2022-08-20T04:10:40;31.02;;;24.23;;
25169;SDS011;13129;48.012;10.352;2022-08-20T04:13:07;27.55;;;23.60;;
25169;SDS011;13129;48.012;10.352;2022-08-20T04:15:33;28.30;;;24.10;;
25169;SDS011;13129;48.012;10.352;2022-08-20T04:18:01;27.33;;;23.77;;
25169;SDS011;13129;48.012;10.352;2022-08-20T04:20:31;27.52;;;23.42;;
25169;SDS011;13129;48.012;10.352;2022-08-20T04:22:58;29.23;;;24.63;;
25169;SDS011;13129;48.012;10.352;2022-08-20T04:25:26;26.92;;;23.17;;
25169;SDS011;13129;48.012;10.352;2022-08-20T04:27:59;28.85;;;24.27;;
25169;SDS011;13129;48.012;10.352;2022-08-20T04:30:26;26.00;;;23.00;;
25169;SDS011;13129;48.012;10.352;2022-08-20T04:32:53;26.88;;;22.45;;
25169;SDS011;13129;48.012;10.352;2022-08-20T04:35:20;25.67;;;22.30;;
25169;SDS011;13129;48.012;10.352;2022-08-20T04:37:48;24.17;;;20.98;;
25169;SDS011;13129;48.012;10.352;2022-08-20T04:40:16;25.42;;;21.52;;
25169;SDS011;13129;48.012;10.352;2022-08-20T04:43:01;25.38;;;21.77;;
25169;SDS011;13129;48.012;10.352;2022-08-20T04:45:31;25.03;;;20.87;;
25169;SDS011;13129;48.012;10.352;2022-08-20T04:48:00;26.17;;;20.73;;
25169;SDS011;13129;48.012;10.352;2022-08-20T04:50:32;24.58;;;20.85;;
25169;SDS011;13129;48.012;10.352;2022-08-20T04:53:00;28.27;;;20.70;;
25169;SDS011;13129;48.012;10.352;2022-08-20T04:55:31;26.67;;;22.42;;
25169;SDS011;13129;48.012;10.352;2022-08-20T04:58:02;24.65;;;21.13;;
25169;SDS011;13129;48.012;10.352;2022-08-20T05:00:29;24.95;;;21.58;;
25169;SDS011;13129;48.012;10.352;2022-08-20T05:02:55;21.88;;;19.45;;
25169;SDS011;13129;48.012;10.352;2022-08-20T05:05:21;23.35;;;19.60;;
25169;SDS011;13129;48.012;10.352;2022-08-20T05:07:47;25.25;;;19.88;;
25169;SDS011;13129;48.012;10.352;2022-08-20T05:10:14;22.55;;;19.80;;
25169;SDS011;13129;48.012;10.352;2022-08-20T05:12:41;22.58;;;18.67;;
25169;SDS011;13129;48.012;10.352;2022-08-20T05:15:08;21.98;;;19.38;;
25169;SDS011;13129;48.012;10.352;2022-08-20T05:17:37;18.98;;;16.98;;
25169;SDS011;13129;48.012;10.352;2022-08-20T05:20:07;21.57;;;19.37;;
25169;SDS011;13129;48.012;10.352;2022-08-20T05:22:35;21.25;;;18.25;;
25169;SDS011;13129;48.012;10.352;2022-08-20T05:25:02;22.35;;;18.02;;
25169;SDS011;13129;48.012;10.352;2022-08-20T05:27:28;18.35;;;16.45;;
25169;SDS011;13129;48.012;10.352;2022-08-20T05:29:58;20.60;;;17.80;;
25169;SDS011;13129;48.012;10.352;2022-08-20T05:32:26;18.60;;;16.63;;
25169;SDS011;13129;48.012;10.352;2022-08-20T05:34:52;18.48;;;16.60;;
25169;SDS011;13129;48.012;10.352;2022-08-20T05:37:18;18.88;;;15.93;;
25169;SDS011;13129;48.012;10.352;2022-08-20T05:39:44;18.13;;;16.08;;
25169;SDS011;13129;48.012;10.352;2022-08-20T05:42:10;17.98;;;16.10;;
25169;SDS011;13129;48.012;10.352;2022-08-20T05:44:36;18.45;;;16.52;;
25169;SDS011;13129;48.012;10.352;2022-08-20T05:47:02;19.02;;;15.95;;
25169;SDS011;13129;48.012;10.352;2022-08-20T05:49:29;18.98;;;17.02;;
25169;SDS011;13129;48.012;10.352;2022-08-20T05:51:55;18.90;;;16.10;;
25169;SDS011;13129;48.012;10.352;2022-08-20T05:54:22;18.27;;;16.38;;
25169;SDS011;13129;48.012;10.352;2022-08-20T05:56:48;19.20;;;17.20;;
25169;SDS011;13129;48.012;10.352;2022-08-20T05:59:14;18.60;;;15.82;;
25169;SDS011;13129;48.012;10.352;2022-08-20T06:01:41;18.75;;;16.30;;
25169;SDS011;13129;48.012;10.352;2022-08-20T06:04:07;19.25;;;17.25;;
25169;SDS011;13129;48.012;10.352;2022-08-20T06:06:50;18.17;;;16.17;;
25169;SDS011;13129;48.012;10.352;2022-08-20T06:09:21;18.15;;;16.23;;
25169;SDS011;13129;48.012;10.352;2022-08-20T06:11:48;17.90;;;15.60;;
25169;SDS011;13129;48.012;10.352;2022-08-20T06:14:14;19.95;;;16.08;;
25169;SDS011;13129;48.012;10.352;2022-08-20T06:16:44;17.98;;;15.20;;
25169;SDS011;13129;48.012;10.352;2022-08-20T06:19:11;17.23;;;14.98;;
25169;SDS011;13129;48.012;10.352;2022-08-20T06:21:37;16.15;;;14.52;;
25169;SDS011;13129;48.012;10.352;2022-08-20T06:24:03;17.02;;;15.23;;
25169;SDS011;13129;48.012;10.352;2022-08-20T06:26:30;16.15;;;14.50;;
25169;SDS011;13129;48.012;10.352;2022-08-20T06:28:58;15.73;;;14.13;;
25169;SDS011;13129;48.012;10.352;2022-08-20T06:31:27;16.98;;;15.25;;
25169;SDS011;13129;48.012;10.352;2022-08-20T06:33:53;16.83;;;15.02;;
25169;SDS011;13129;48.012;10.352;2022-08-20T06:36:19;15.52;;;14.02;;
25169;SDS011;13129;48.012;10.352;2022-08-20T06:38:45;15.88;;;13.35;;
25169;SDS011;13129;48.012;10.352;2022-08-20T06:41:10;16.77;;;14.00;;
25169;SDS011;13129;48.012;10.352;2022-08-20T06:43:36;14.98;;;13.27;;
25169;SDS011;13129;48.012;10.352;2022-08-20T06:46:02;15.93;;;14.18;;
25169;SDS011;13129;48.012;10.352;2022-08-20T06:48:27;16.40;;;14.80;;
25169;SDS011;13129;48.012;10.352;2022-08-20T06:50:53;16.02;;;14.32;;
25169;SDS011;13129;48.012;10.352;2022-08-20T06:53:19;15.57;;;14.05;;
25169;SDS011;13129;48.012;10.352;2022-08-20T06:55:49;15.77;;;14.27;;
25169;SDS011;13129;48.012;10.352;2022-08-20T06:58:17;14.45;;;13.02;;
25169;SDS011;13129;48.012;10.352;2022-08-20T07:00:45;14.05;;;12.65;;
25169;SDS011;13129;48.012;10.352;2022-08-20T07:03:12;13.18;;;11.98;;
25169;SDS011;13129;48.012;10.352;2022-08-20T07:05:39;13.10;;;11.80;;
25169;SDS011;13129;48.012;10.352;2022-08-20T07:08:08;12.52;;;11.27;;
25169;SDS011;13129;48.012;10.352;2022-08-20T07:10:35;12.38;;;11.07;;
25169;SDS011;13129;48.012;10.352;2022-08-20T07:13:02;12.68;;;11.48;;
25169;SDS011;13129;48.012;10.352;2022-08-20T07:15:28;13.02;;;11.73;;
25169;SDS011;13129;48.012;10.352;2022-08-20T07:17:54;13.25;;;11.85;;
25169;SDS011;13129;48.012;10.352;2022-08-20T07:20:22;13.30;;;11.90;;
25169;SDS011;13129;48.012;10.352;2022-08-20T07:22:49;12.23;;;11.13;;
25169;SDS011;13129;48.012;10.352;2022-08-20T07:25:16;13.07;;;11.77;;
25169;SDS011;13129;48.012;10.352;2022-08-20T07:27:44;13.65;;;12.30;;
25169;SDS011;13129;48.012;10.352;2022-08-20T07:30:13;13.10;;;11.70;;
25169;SDS011;13129;48.012;10.352;2022-08-20T07:33:05;12.98;;;11.77;;
25169;SDS011;13129;48.012;10.352;2022-08-20T07:35:31;13.73;;;12.45;;
25169;SDS011;13129;48.012;10.352;2022-08-20T07:37:57;13.35;;;12.00;;
25169;SDS011;13129;48.012;10.352;2022-08-20T07:40:24;14.38;;;12.98;;
25169;SDS011;13129;48.012;10.352;2022-08-20T07:42:53;12.70;;;11.50;;
25169;SDS011;13129;48.012;10.352;2022-08-20T07:45:20;12.73;;;11.38;;
25169;SDS011;13129;48.012;10.352;2022-08-20T07:47:46;11.85;;;10.65;;
25169;SDS011;13129;48.012;10.352;2022-08-20T07:50:14;10.90;;;9.80;;
25169;SDS011;13129;48.012;10.352;2022-08-20T07:52:41;12.43;;;10.00;;
25169;SDS011;13129;48.012;10.352;2022-08-20T07:55:10;10.15;;;9.13;;
25169;SDS011;13129;48.012;10.352;2022-08-20T07:57:39;10.15;;;9.23;;
25169;SDS011;13129;48.012;10.352;2022-08-20T08:00:06;12.38;;;11.18;;
25169;SDS011;13129;48.012;10.352;2022-08-20T08:02:33;11.88;;;10.40;;
25169;SDS011;13129;48.012;10.352;2022-08-20T08:05:00;11.35;;;10.25;;
25169;SDS011;13129;48.012;10.352;2022-08-20T08:07:27;11.90;;;10.73;;
25169;SDS011;13129;48.012;10.352;2022-08-20T08:09:52;12.18;;;11.07;;
25169;SDS011;13129;48.012;10.352;2022-08-20T08:12:19;11.45;;;10.43;;
25169;SDS011;13129;48.012;10.352;2022-08-20T08:14:45;11.05;;;9.95;;
25169;SDS011;13129;48.012;10.352;2022-08-20T08:17:13;9.20;;;8.23;;
25169;SDS011;13129;48.012;10.352;2022-08-20T08:19:41;10.88;;;9.77;;
25169;SDS011;13129;48.012;10.352;2022-08-20T08:22:12;10.25;;;9.18;;
25169;SDS011;13129;48.012;10.352;2022-08-20T08:24:40;11.25;;;10.15;;
25169;SDS011;13129;48.012;10.352;2022-08-20T08:27:07;10.32;;;9.32;;
25169;SDS011;13129;48.012;10.352;2022-08-20T08:29:34;9.32;;;8.43;;
25169;SDS011;13129;48.012;10.352;2022-08-20T08:32:01;10.05;;;9.15;;
25169;SDS011;13129;48.012;10.352;2022-08-20T08:34:28;9.85;;;9.02;;
25169;SDS011;13129;48.012;10.352;2022-08-20T08:36:55;9.27;;;8.45;;
25169;SDS011;13129;48.012;10.352;2022-08-20T08:39:22;9.70;;;8.80;;
25169;SDS011;13129;48.012;10.352;2022-08-20T08:41:49;9.93;;;9.02;;
25169;SDS011;13129;48.012;10.352;2022-08-20T08:44:23;8.70;;;8.00;;
25169;SDS011;13129;48.012;10.352;2022-08-20T08:47:00;8.73;;;7.93;;
25169;SDS011;13129;48.012;10.352;2022-08-20T08:49:34;9.15;;;8.35;;
25169;SDS011;13129;48.012;10.352;2022-08-20T08:52:04;8.77;;;8.07;;
25169;SDS011;13129;48.012;10.352;2022-08-20T08:54:35;8.80;;;8.10;;
25169;SDS011;13129;48.012;10.352;2022-08-20T08:57:07;8.95;;;8.32;;
25169;SDS011;13129;48.012;10.352;2022-08-20T08:59:34;9.05;;;8.20;;
25169;SDS011;13129;48.012;10.352;2022-08-20T09:02:00;8.45;;;7.75;;
25169;SDS011;13129;48.012;10.352;2022-08-20T09:04:36;9.80;;;9.05;;
25169;SDS011;13129;48.012;10.352;2022-08-20T09:07:06;9.43;;;8.73;;
25169;SDS011;13129;48.012;10.352;2022-08-20T09:09:38;8.88;;;8.27;;
25169;SDS011;13129;48.012;10.352;2022-08-20T09:12:10;8.38;;;7.63;;
25169;SDS011;13129;48.012;10.352;2022-08-20T09:14:45;8.45;;;7.75;;
25169;SDS011;13129;48.012;10.352;2022-08-20T09:17:12;8.52;;;7.82;;
25169;SDS011;13129;48.012;10.352;2022-08-20T09:19:43;9.32;;;8.52;;
25169;SDS011;13129;48.012;10.352;2022-08-20T09:22:10;8.57;;;7.88;;
25169;SDS011;13129;48.012;10.352;2022-08-20T09:24:47;8.02;;;7.32;;
25169;SDS011;13129;48.012;10.352;2022-08-20T09:27:13;8.07;;;7.47;;
25169;SDS011;13129;48.012;10.352;2022-08-20T09:29:39;7.95;;;7.00;;
25169;SDS011;13129;48.012;10.352;2022-08-20T09:32:06;8.60;;;7.45;;
25169;SDS011;13129;48.012;10.352;2022-08-20T09:34:41;7.15;;;6.53;;
25169;SDS011;13129;48.012;10.352;2022-08-20T09:37:10;7.18;;;6.55;;
25169;SDS011;13129;48.012;10.352;2022-08-20T09:39:36;7.68;;;7.07;;
25169;SDS011;13129;48.012;10.352;2022-08-20T09:42:09;7.75;;;7.15;;
25169;SDS011;13129;48.012;10.352;2022-08-20T09:44:37;7.65;;;7.05;;
25169;SDS011;13129;48.012;10.352;2022-08-20T09:47:04;6.45;;;5.95;;
25169;SDS011;13129;48.012;10.352;2022-08-20T09:49:30;7.85;;;7.15;;
25169;SDS011;13129;48.012;10.352;2022-08-20T09:51:56;8.10;;;7.40;;
25169;SDS011;13129;48.012;10.352;2022-08-20T09:54:23;7.53;;;6.95;;
25169;SDS011;13129;48.012;10.352;2022-08-20T09:56:54;7.80;;;7.10;;
25169;SDS011;13129;48.012;10.352;2022-08-20T09:59:24;7.72;;;6.97;;
25169;SDS011;13129;48.012;10.352;2022-08-20T10:01:51;8.43;;;7.65;;
25169;SDS011;13129;48.012;10.352;2022-08-20T10:04:16;8.43;;;7.65;;
25169;SDS011;13129;48.012;10.352;2022-08-20T10:06:42;8.40;;;7.57;;
25169;SDS011;13129;48.012;10.352;2022-08-20T10:09:09;6.80;;;6.30;;
25169;SDS011;13129;48.012;10.352;2022-08-20T10:11:34;5.93;;;5.47;;
25169;SDS011;13129;48.012;10.352;2022-08-20T10:14:00;6.93;;;6.32;;
25169;SDS011;13129;48.012;10.352;2022-08-20T10:16:25;5.72;;;5.22;;
25169;SDS011;13129;48.012;10.352;2022-08-20T10:18:51;4.80;;;4.50;;
25169;SDS011;13129;48.012;10.352;2022-08-20T10:21:17;4.93;;;4.47;;
25169;SDS011;13129;48.012;10.352;2022-08-20T10:23:43;4.95;;;4.55;;
25169;SDS011;13129;48.012;10.352;2022-08-20T10:26:10;5.13;;;4.72;;
25169;SDS011;13129;48.012;10.352;2022-08-20T10:28:36;5.10;;;4.70;;
25169;SDS011;13129;48.012;10.352;2022-08-20T10:31:06;5.20;;;4.75;;
25169;SDS011;13129;48.012;10.352;2022-08-20T10:33:35;4.68;;;4.38;;
25169;SDS011;13129;48.012;10.352;2022-08-20T10:36:06;5.35;;;4.95;;
25169;SDS011;13129;48.012;10.352;2022-08-20T10:38:33;5.45;;;5.05;;
25169;SDS011;13129;48.012;10.352;2022-08-20T10:40:58;5.53;;;5.03;;
25169;SDS011;13129;48.012;10.352;2022-08-20T10:43:24;5.05;;;4.63;;
25169;SDS011;13129;48.012;10.352;2022-08-20T10:45:50;5.13;;;4.47;;
25169;SDS011;13129;48.012;10.352;2022-08-20T10:48:16;5.05;;;4.65;;
25169;SDS011;13129;48.012;10.352;2022-08-20T10:50:42;5.50;;;5.10;;
25169;SDS011;13129;48.012;10.352;2022-08-20T10:53:07;5.30;;;4.80;;
25169;SDS011;13129;48.012;10.352;2022-08-20T10:55:33;5.72;;;5.22;;
25169;SDS011;13129;48.012;10.352;2022-08-20T10:57:59;5.80;;;5.30;;
25169;SDS011;13129;48.012;10.352;2022-08-20T11:00:24;5.53;;;5.03;;
25169;SDS011;13129;48.012;10.352;2022-08-20T11:02:50;9.23;;;5.63;;
25169;SDS011;13129;48.012;10.352;2022-08-20T11:05:16;5.47;;;4.97;;
25169;SDS011;13129;48.012;10.352;2022-08-20T11:07:42;5.15;;;4.75;;
25169;SDS011;13129;48.012;10.352;2022-08-20T11:10:10;6.20;;;5.60;;
25169;SDS011;13129;48.012;10.352;2022-08-20T11:12:35;7.78;;;6.68;;
25169;SDS011;13129;48.012;10.352;2022-08-20T11:15:01;5.00;;;4.28;;
25169;SDS011;13129;48.012;10.352;2022-08-20T11:17:29;4.70;;;4.30;;
25169;SDS011;13129;48.012;10.352;2022-08-20T11:19:57;4.43;;;4.10;;
25169;SDS011;13129;48.012;10.352;2022-08-20T11:22:25;2.40;;;2.20;;
25169;SDS011;13129;48.012;10.352;2022-08-20T11:24:51;2.42;;;2.33;;
25169;SDS011;13129;48.012;10.352;2022-08-20T11:27:22;1.95;;;1.85;;
25169;SDS011;13129;48.012;10.352;2022-08-20T11:29:50;2.00;;;1.80;;
25169;SDS011;13129;48.012;10.352;2022-08-20T11:32:16;2.15;;;1.90;;
25169;SDS011;13129;48.012;10.352;2022-08-20T11:34:42;3.35;;;2.15;;
25169;SDS011;13129;48.012;10.352;2022-08-20T11:37:08;2.25;;;2.05;;
25169;SDS011;13129;48.012;10.352;2022-08-20T11:39:34;3.63;;;2.30;;
25169;SDS011;13129;48.012;10.352;2022-08-20T11:42:00;2.58;;;2.38;;
25169;SDS011;13129;48.012;10.352;2022-08-20T11:44:26;2.80;;;2.60;;
25169;SDS011;13129;48.012;10.352;2022-08-20T11:46:52;5.10;;;4.60;;
25169;SDS011;13129;48.012;10.352;2022-08-20T11:49:17;3.15;;;2.50;;
25169;SDS011;13129;48.012;10.352;2022-08-20T11:51:43;3.13;;;2.90;;
25169;SDS011;13129;48.012;10.352;2022-08-20T11:54:09;3.55;;;3.15;;
25169;SDS011;13129;48.012;10.352;2022-08-20T11:56:34;3.60;;;3.33;;
25169;SDS011;13129;48.012;10.352;2022-08-20T11:59:00;3.25;;;3.05;;
25169;SDS011;13129;48.012;10.352;2022-08-20T12:01:26;4.18;;;3.78;;
25169;SDS011;13129;48.012;10.352;2022-08-20T12:03:51;5.63;;;4.03;;
25169;SDS011;13129;48.012;10.352;2022-08-20T12:06:17;4.53;;;3.70;;
25169;SDS011;13129;48.012;10.352;2022-08-20T12:08:42;4.32;;;3.92;;
25169;SDS011;13129;48.012;10.352;2022-08-20T12:11:08;3.72;;;3.42;;
25169;SDS011;13129;48.012;10.352;2022-08-20T12:13:35;3.30;;;3.00;;
25169;SDS011;13129;48.012;10.352;2022-08-20T12:16:01;3.53;;;3.30;;
25169;SDS011;13129;48.012;10.352;2022-08-20T12:18:28;2.83;;;2.63;;
25169;SDS011;13129;48.012;10.352;2022-08-20T12:20:55;2.88;;;2.65;;
25169;SDS011;13129;48.012;10.352;2022-08-20T12:23:21;2.95;;;2.75;;
25169;SDS011;13129;48.012;10.352;2022-08-20T12:25:47;3.13;;;2.83;;
25169;SDS011;13129;48.012;10.352;2022-08-20T12:28:13;3.28;;;3.00;;
25169;SDS011;13129;48.012;10.352;2022-08-20T12:30:39;3.58;;;3.28;;
25169;SDS011;13129;48.012;10.352;2022-08-20T12:33:05;3.80;;;3.50;;
25169;SDS011;13129;48.012;10.352;2022-08-20T12:35:31;4.38;;;3.90;;
25169;SDS011;13129;48.012;10.352;2022-08-20T12:37:57;4.35;;;3.95;;
25169;SDS011;13129;48.012;10.352;2022-08-20T12:40:27;4.57;;;4.18;;
25169;SDS011;13129;48.012;10.352;2022-08-20T12:42:52;3.72;;;3.42;;
25169;SDS011;13129;48.012;10.352;2022-08-20T12:45:19;4.95;;;4.13;;
25169;SDS011;13129;48.012;10.352;2022-08-20T12:47:45;4.10;;;3.72;;
25169;SDS011;13129;48.012;10.352;2022-08-20T12:50:16;4.55;;;4.15;;
25169;SDS011;13129;48.012;10.352;2022-08-20T12:52:47;5.10;;;4.70;;
25169;SDS011;13129;48.012;10.352;2022-08-20T12:55:14;4.80;;;4.40;;
25169;SDS011;13129;48.012;10.352;2022-08-20T12:57:46;5.40;;;5.00;;
25169;SDS011;13129;48.012;10.352;2022-08-20T13:00:19;5.30;;;4.90;;
25169;SDS011;13129;48.012;10.352;2022-08-20T13:02:51;6.20;;;5.60;;
25169;SDS011;13129;48.012;10.352;2022-08-20T13:05:18;6.10;;;5.43;;
25169;SDS011;13129;48.012;10.352;2022-08-20T13:07:44;5.90;;;5.40;;
25169;SDS011;13129;48.012;10.352;2022-08-20T13:10:12;6.50;;;5.78;;
25169;SDS011;13129;48.012;10.352;2022-08-20T13:12:41;9.43;;;5.90;;
25169;SDS011;13129;48.012;10.352;2022-08-20T13:15:07;5.43;;;3.28;;
25169;SDS011;13129;48.012;10.352;2022-08-20T13:17:33;10.15;;;3.10;;
25169;SDS011;13129;48.012;10.352;2022-08-20T13:19:59;5.88;;;2.42;;
25169;SDS011;13129;48.012;10.352;2022-08-20T13:22:24;4.40;;;2.90;;
25169;SDS011;13129;48.012;10.352;2022-08-20T13:24:50;4.70;;;2.85;;
25169;SDS011;13129;48.012;10.352;2022-08-20T13:27:17;3.22;;;2.92;;
25169;SDS011;13129;48.012;10.352;2022-08-20T13:29:54;3.63;;;3.30;;
25169;SDS011;13129;48.012;10.352;2022-08-20T13:36:00;3.10;;;2.80;;
25169;SDS011;13129;48.012;10.352;2022-08-20T13:42:44;3.33;;;3.03;;
25169;SDS011;13129;48.012;10.352;2022-08-20T13:49:28;4.57;;;3.90;;
25169;SDS011;13129;48.012;10.352;2022-08-20T13:51:59;3.92;;;3.63;;
25169;SDS011;13129;48.012;10.352;2022-08-20T13:57:55;3.70;;;3.25;;
25169;SDS011;13129;48.012;10.352;2022-08-20T14:11:00;4.40;;;3.90;;
25169;SDS011;13129;48.012;10.352;2022-08-20T14:14:06;4.05;;;3.65;;
25169;SDS011;13129;48.012;10.352;2022-08-20T14:20:13;3.10;;;2.90;;
25169;SDS011;13129;48.012;10.352;2022-08-20T14:22:43;2.97;;;2.70;;
25169;SDS011;13129;48.012;10.352;2022-08-20T14:25:11;2.42;;;2.25;;
25169;SDS011;13129;48.012;10.352;2022-08-20T14:27:40;1.70;;;1.60;;
25169;SDS011;13129;48.012;10.352;2022-08-20T14:30:07;1.67;;;1.50;;
25169;SDS011;13129;48.012;10.352;2022-08-20T14:32:35;1.20;;;1.20;;
25169;SDS011;13129;48.012;10.352;2022-08-20T14:35:01;1.05;;;1.05;;
25169;SDS011;13129;48.012;10.352;2022-08-20T14:37:28;1.80;;;1.70;;
25169;SDS011;13129;48.012;10.352;2022-08-20T14:39:57;1.25;;;1.25;;
25169;SDS011;13129;48.012;10.352;2022-08-20T14:42:24;1.58;;;1.35;;
25169;SDS011;13129;48.012;10.352;2022-08-20T14:44:52;1.05;;;1.05;;
25169;SDS011;13129;48.012;10.352;2022-08-20T14:47:20;1.02;;;1.02;;
25169;SDS011;13129;48.012;10.352;2022-08-20T14:49:52;1.33;;;1.23;;
25169;SDS011;13129;48.012;10.352;2022-08-20T14:52:19;1.08;;;1.08;;
25169;SDS011;13129;48.012;10.352;2022-08-20T14:54:46;1.05;;;1.05;;
25169;SDS011;13129;48.012;10.352;2022-08-20T14:57:13;1.33;;;1.23;;
25169;SDS011;13129;48.012;10.352;2022-08-20T14:59:41;1.30;;;1.10;;
25169;SDS011;13129;48.012;10.352;2022-08-20T15:02:08;1.42;;;1.33;;
25169;SDS011;13129;48.012;10.352;2022-08-20T15:04:35;0.90;;;0.90;;
25169;SDS011;13129;48.012;10.352;2022-08-20T15:07:02;1.00;;;1.00;;
25169;SDS011;13129;48.012;10.352;2022-08-20T15:09:32;1.30;;;1.20;;
25169;SDS011;13129;48.012;10.352;2022-08-20T15:11:59;1.40;;;1.30;;
25169;SDS011;13129;48.012;10.352;2022-08-20T15:14:25;1.10;;;1.00;;
25169;SDS011;13129;48.012;10.352;2022-08-20T15:16:52;2.08;;;1.00;;
25169;SDS011;13129;48.012;10.352;2022-08-20T15:19:18;1.02;;;1.02;;
25169;SDS011;13129;48.012;10.352;2022-08-20T15:21:45;1.85;;;1.48;;
25169;SDS011;13129;48.012;10.352;2022-08-20T15:24:11;1.60;;;1.50;;
25169;SDS011;13129;48.012;10.352;2022-08-20T15:26:37;1.23;;;1.13;;
25169;SDS011;13129;48.012;10.352;2022-08-20T15:29:03;1.40;;;1.30;;
25169;SDS011;13129;48.012;10.352;2022-08-20T15:31:29;1.30;;;1.20;;
25169;SDS011;13129;48.012;10.352;2022-08-20T15:33:55;1.50;;;1.40;;
25169;SDS011;13129;48.012;10.352;2022-08-20T15:36:20;1.52;;;1.42;;
25169;SDS011;13129;48.012;10.352;2022-08-20T15:38:46;2.80;;;1.60;;
25169;SDS011;13129;48.012;10.352;2022-08-20T15:41:12;1.42;;;1.33;;
25169;SDS011;13129;48.012;10.352;2022-08-20T15:43:38;1.45;;;1.35;;
25169;SDS011;13129;48.012;10.352;2022-08-20T15:46:04;1.45;;;1.35;;
25169;SDS011;13129;48.012;10.352;2022-08-20T15:48:40;2.67;;;1.70;;
25169;SDS011;13129;48.012;10.352;2022-08-20T15:56:27;1.88;;;1.77;;
25169;SDS011;13129;48.012;10.352;2022-08-20T15:59:43;2.03;;;1.60;;
25169;SDS011;13129;48.012;10.352;2022-08-20T16:04:30;2.78;;;2.58;;
25169;SDS011;13129;48.012;10.352;2022-08-20T16:07:22;2.40;;;2.30;;
25169;SDS011;13129;48.012;10.352;2022-08-20T16:12:30;2.08;;;1.98;;
25169;SDS011;13129;48.012;10.352;2022-08-20T16:15:02;2.80;;;2.00;;
25169;SDS011;13129;48.012;10.352;2022-08-20T16:17:37;1.60;;;1.50;;
25169;SDS011;13129;48.012;10.352;2022-08-20T16:20:14;1.23;;;1.13;;
25169;SDS011;13129;48.012;10.352;2022-08-20T16:22:50;1.25;;;1.15;;
25169;SDS011;13129;48.012;10.352;2022-08-20T16:25:16;1.27;;;1.17;;
25169;SDS011;13129;48.012;10.352;2022-08-20T16:28:21;1.67;;;1.58;;
25169;SDS011;13129;48.012;10.352;2022-08-20T16:30:56;1.67;;;1.40;;
25169;SDS011;13129;48.012;10.352;2022-08-20T16:36:36;1.42;;;1.33;;
25169;SDS011;13129;48.012;10.352;2022-08-20T16:39:09;1.80;;;1.70;;
25169;SDS011;13129;48.012;10.352;2022-08-20T16:41:44;1.52;;;1.42;;
25169;SDS011;13129;48.012;10.352;2022-08-20T16:46:51;5.10;;;4.60;;
25169;SDS011;13129;48.012;10.352;2022-08-20T16:49:37;5.03;;;4.63;;
25169;SDS011;13129;48.012;10.352;2022-08-20T16:54:33;3.13;;;2.83;;
25169;SDS011;13129;48.012;10.352;2022-08-20T16:57:00;1.90;;;1.80;;
25169;SDS011;13129;48.012;10.352;2022-08-20T16:59:28;3.25;;;2.97;;
25169;SDS011;13129;48.012;10.352;2022-08-20T17:02:04;3.83;;;3.10;;
25169;SDS011;13129;48.012;10.352;2022-08-20T17:04:45;4.60;;;4.20;;
25169;SDS011;13129;48.012;10.352;2022-08-20T17:07:13;5.38;;;4.28;;
25169;SDS011;13129;48.012;10.352;2022-08-20T17:09:47;5.03;;;4.45;;
25169;SDS011;13129;48.012;10.352;2022-08-20T17:12:23;3.88;;;3.33;;
25169;SDS011;13129;48.012;10.352;2022-08-20T17:14:52;2.20;;;2.10;;
25169;SDS011;13129;48.012;10.352;2022-08-20T17:17:21;1.95;;;1.85;;
25169;SDS011;13129;48.012;10.352;2022-08-20T17:19:54;2.38;;;1.80;;
25169;SDS011;13129;48.012;10.352;2022-08-20T17:22:46;1.90;;;1.80;;
25169;SDS011;13129;48.012;10.352;2022-08-20T17:25:19;2.03;;;1.88;;
25169;SDS011;13129;48.012;10.352;2022-08-20T17:27:53;1.90;;;1.80;;
25169;SDS011;13129;48.012;10.352;2022-08-20T17:30:24;2.00;;;1.90;;
25169;SDS011;13129;48.012;10.352;2022-08-20T17:33:04;1.98;;;1.88;;
25169;SDS011;13129;48.012;10.352;2022-08-20T17:35:32;2.28;;;1.80;;
25169;SDS011;13129;48.012;10.352;2022-08-20T17:38:02;1.92;;;1.67;;
25169;SDS011;13129;48.012;10.352;2022-08-20T17:43:06;1.80;;;1.70;;
25169;SDS011;13129;48.012;10.352;2022-08-20T17:45:40;1.70;;;1.60;;
25169;SDS011;13129;48.012;10.352;2022-08-20T17:48:12;2.08;;;1.98;;
25169;SDS011;13129;48.012;10.352;2022-08-20T17:50:44;2.67;;;2.47;;
25169;SDS011;13129;48.012;10.352;2022-08-20T17:53:13;2.60;;;2.40;;
25169;SDS011;13129;48.012;10.352;2022-08-20T17:55:41;2.45;;;2.20;;
25169;SDS011;13129;48.012;10.352;2022-08-20T17:58:10;2.10;;;2.00;;
25169;SDS011;13129;48.012;10.352;2022-08-20T18:00:38;2.35;;;2.15;;
25169;SDS011;13129;48.012;10.352;2022-08-20T18:03:08;1.52;;;1.42;;
25169;SDS011;13129;48.012;10.352;2022-08-20T18:05:48;1.65;;;1.55;;
25169;SDS011;13129;48.012;10.352;2022-08-20T18:11:12;1.67;;;1.58;;
25169;SDS011;13129;48.012;10.352;2022-08-20T18:19:50;2.10;;;2.00;;
25169;SDS011;13129;48.012;10.352;2022-08-20T18:22:19;2.05;;;1.90;;
25169;SDS011;13129;48.012;10.352;2022-08-20T18:25:03;2.90;;;1.95;;
25169;SDS011;13129;48.012;10.352;2022-08-20T18:27:38;2.47;;;1.90;;
25169;SDS011;13129;48.012;10.352;2022-08-20T18:30:14;2.40;;;2.08;;
25169;SDS011;13129;48.012;10.352;2022-08-20T18:32:42;2.75;;;2.28;;
25169;SDS011;13129;48.012;10.352;2022-08-20T18:37:44;1.80;;;1.70;;
25169;SDS011;13129;48.012;10.352;2022-08-20T18:42:52;2.50;;;2.13;;
25169;SDS011;13129;48.012;10.352;2022-08-20T18:45:28;2.40;;;2.20;;
25169;SDS011;13129;48.012;10.352;2022-08-20T18:47:56;1.95;;;1.85;;
25169;SDS011;13129;48.012;10.352;2022-08-20T18:50:40;1.83;;;1.73;;
25169;SDS011;13129;48.012;10.352;2022-08-20T18:53:14;2.40;;;2.20;;
25169;SDS011;13129;48.012;10.352;2022-08-20T18:55:45;2.90;;;2.38;;
25169;SDS011;13129;48.012;10.352;2022-08-20T19:01:11;2.25;;;2.13;;
25169;SDS011;13129;48.012;10.352;2022-08-20T19:03:42;3.13;;;1.73;;
25169;SDS011;13129;48.012;10.352;2022-08-20T19:14:44;3.17;;;2.88;;
25169;SDS011;13129;48.012;10.352;2022-08-20T19:17:35;2.70;;;2.50;;
25169;SDS011;13129;48.012;10.352;2022-08-20T19:20:35;4.00;;;2.80;;
25169;SDS011;13129;48.012;10.352;2022-08-20T19:23:06;2.97;;;2.67;;
25169;SDS011;13129;48.012;10.352;2022-08-20T19:25:39;2.70;;;2.50;;
25169;SDS011;13129;48.012;10.352;2022-08-20T19:28:20;3.00;;;2.80;;
25169;SDS011;13129;48.012;10.352;2022-08-20T19:31:17;2.67;;;2.47;;
25169;SDS011;13129;48.012;10.352;2022-08-20T19:33:45;2.42;;;2.33;;
25169;SDS011;13129;48.012;10.352;2022-08-20T19:36:22;3.17;;;2.75;;
25169;SDS011;13129;48.012;10.352;2022-08-20T19:41:20;3.03;;;2.72;;
25169;SDS011;13129;48.012;10.352;2022-08-20T19:43:51;3.03;;;2.72;;